Time;durP1;ratioP1;P1;durP2;ratioP2;P2;SDS_P1;SDS_P2;PMS_P1;PMS_P2;Temp;Humidity;BMP_temperature;BMP_pressure;BME280_temperature;BME280_humidity;BME280_pressure;Samples;Min_cycle;Max_cycle;Signal;HPM_P1;HPM_P2
2021/10/05 00:00:35;;;;;;;16.15;8.45;;;;;;;14.09;93.05;100511.34;6321326;28;20109;-71
2021/10/05 00:03:37;;;;;;;16.58;9.05;;;;;;;14.10;92.66;100515.66;6322266;28;20048;-71
2021/10/05 00:06:38;;;;;;;18.60;9.40;;;;;;;14.15;92.99;100515.34;6304456;28;20044;-71
2021/10/05 00:09:38;;;;;;;17.10;8.85;;;;;;;14.15;93.21;100517.13;6321823;28;20052;-71
2021/10/05 00:12:39;;;;;;;19.85;9.60;;;;;;;14.17;93.85;100517.88;6322337;28;20543;-71
2021/10/05 00:15:40;;;;;;;18.70;8.93;;;;;;;14.14;92.79;100513.66;6321975;28;20055;-71
2021/10/05 00:18:41;;;;;;;18.05;8.88;;;;;;;14.14;93.32;100507.56;6332938;28;20039;-71
2021/10/05 00:21:43;;;;;;;12.43;7.65;;;;;;;14.14;93.48;100512.81;6345582;28;20051;-71
2021/10/05 00:24:44;;;;;;;14.57;7.05;;;;;;;14.10;93.51;100515.66;6304669;28;20085;-71
2021/10/05 00:27:44;;;;;;;15.60;7.22;;;;;;;14.08;92.26;100514.06;6321266;28;20040;-71
2021/10/05 00:30:45;;;;;;;12.18;7.07;;;;;;;14.09;93.70;100513.13;6326735;28;20079;-71
2021/10/05 00:33:46;;;;;;;9.85;6.72;;;;;;;14.03;94.43;100511.75;6329844;28;20119;-71
2021/10/05 00:36:47;;;;;;;13.25;7.65;;;;;;;14.00;94.20;100508.50;6346599;28;20040;-71
2021/10/05 00:39:48;;;;;;;12.40;6.95;;;;;;;13.96;95.12;100518.38;6346298;28;20052;-71
2021/10/05 00:42:48;;;;;;;11.68;7.22;;;;;;;13.91;94.56;100517.84;6328870;28;20048;-71
2021/10/05 00:45:49;;;;;;;10.27;6.55;;;;;;;13.88;95.31;100515.44;6345770;28;20040;-71
2021/10/05 00:48:50;;;;;;;14.85;8.95;;;;;;;13.72;94.09;100513.00;6347018;28;20461;-71
2021/10/05 00:51:51;;;;;;;12.95;6.85;;;;;;;13.68;94.72;100504.50;6346985;28;20123;-71
2021/10/05 00:54:52;;;;;;;17.27;7.25;;;;;;;13.68;95.65;100506.28;6345800;28;20046;-71
2021/10/05 00:57:53;;;;;;;13.68;8.07;;;;;;;13.55;95.64;100503.63;6345703;28;20044;-71
2021/10/05 01:00:53;;;;;;;11.63;7.40;;;;;;;13.50;96.53;100508.31;6347026;28;20455;-71
2021/10/05 01:03:54;;;;;;;17.48;8.48;;;;;;;13.59;94.71;100517.34;6346758;28;20040;-70
2021/10/05 01:07:08;;;;;;;20.00;9.13;;;;;;;13.35;96.99;100504.94;6346898;28;20050;-71
2021/10/05 01:10:11;;;;;;;21.05;7.65;;;;;;;13.33;100.00;100495.50;6345627;28;20055;-70
2021/10/05 01:13:12;;;;;;;14.20;6.72;;;;;;;13.26;99.76;100500.25;6345695;28;20032;-71
2021/10/05 01:16:20;;;;;;;15.35;6.72;;;;;;;13.21;100.00;100497.94;6345550;28;20552;-71
2021/10/05 01:19:21;;;;;;;10.93;6.28;;;;;;;13.10;100.00;100496.03;6346604;28;20093;-71
2021/10/05 01:22:22;;;;;;;13.95;7.47;;;;;;;13.02;100.00;100489.59;6349442;28;20039;-70
2021/10/05 01:25:23;;;;;;;16.65;6.75;;;;;;;12.93;100.00;100500.66;6350286;28;20040;-71
2021/10/05 01:28:25;;;;;;;11.73;6.90;;;;;;;12.89;100.00;100498.25;6350323;28;20047;-70
2021/10/05 01:31:26;;;;;;;14.82;6.80;;;;;;;12.83;100.00;100503.03;6350283;28;20070;-71
2021/10/05 01:34:27;;;;;;;12.27;7.07;;;;;;;12.82;100.00;100509.19;6351278;28;20040;-71
2021/10/05 01:37:28;;;;;;;11.48;7.20;;;;;;;12.77;100.00;100496.41;6350795;28;20044;-71
2021/10/05 01:40:29;;;;;;;10.20;6.77;;;;;;;12.68;100.00;100495.22;6350688;28;20048;-71
2021/10/05 01:43:30;;;;;;;10.43;6.78;;;;;;;12.66;100.00;100499.69;6351795;28;20051;-71
2021/10/05 01:46:31;;;;;;;11.57;6.97;;;;;;;12.60;100.00;100500.09;6333641;28;20413;-71
2021/10/05 01:49:32;;;;;;;14.15;7.03;;;;;;;12.65;100.00;100508.47;6351451;28;20483;-70
2021/10/05 01:52:34;;;;;;;10.93;6.97;;;;;;;12.72;100.00;100508.94;6351133;28;20493;-75
2021/10/05 01:55:34;;;;;;;10.43;6.57;;;;;;;12.75;100.00;100503.50;6349622;28;20057;-75
2021/10/05 01:58:35;;;;;;;10.85;6.57;;;;;;;12.81;100.00;100508.34;6332776;28;20061;-75
2021/10/05 02:01:38;;;;;;;11.77;6.47;;;;;;;12.84;100.00;100510.78;6350490;28;20605;-75
2021/10/05 02:04:40;;;;;;;14.45;6.75;;;;;;;12.84;100.00;100516.00;6338370;28;20032;-74
2021/10/05 02:07:41;;;;;;;11.93;6.45;;;;;;;12.79;100.00;100512.84;6308592;28;20040;-75
2021/10/05 02:10:42;;;;;;;10.48;6.60;;;;;;;12.75;100.00;100526.25;6307130;28;20400;-75
2021/10/05 02:13:43;;;;;;;10.13;6.47;;;;;;;12.74;100.00;100525.38;6342545;28;20043;-75
2021/10/05 02:16:44;;;;;;;8.13;6.20;;;;;;;12.70;100.00;100530.00;6350163;28;20130;-75
2021/10/05 02:19:44;;;;;;;9.07;6.20;;;;;;;12.76;100.00;100533.97;6350243;28;20040;-75
2021/10/05 02:22:45;;;;;;;14.13;6.43;;;;;;;12.76;100.00;100527.91;6307026;28;20044;-75
2021/10/05 02:25:46;;;;;;;9.68;6.47;;;;;;;12.79;100.00;100532.97;6325065;28;20128;-75
2021/10/05 02:28:46;;;;;;;8.80;6.22;;;;;;;12.78;100.00;100529.50;6333413;28;20047;-75
2021/10/05 02:31:48;;;;;;;13.90;6.65;;;;;;;12.83;100.00;100537.91;6299543;28;20036;-75
2021/10/05 02:34:49;;;;;;;15.85;6.32;;;;;;;12.83;100.00;100534.47;6341406;28;20459;-75
2021/10/05 02:37:49;;;;;;;12.02;6.45;;;;;;;12.84;100.00;100536.97;6349148;28;20035;-75
2021/10/05 02:40:50;;;;;;;10.77;7.05;;;;;;;12.85;100.00;100535.22;6325948;28;20464;-75
2021/10/05 02:43:51;;;;;;;11.82;6.53;;;;;;;12.84;100.00;100534.34;6325036;28;20051;-75
2021/10/05 02:46:52;;;;;;;10.15;6.35;;;;;;;12.84;100.00;100536.97;6334996;28;20040;-75
2021/10/05 02:49:52;;;;;;;12.10;6.80;;;;;;;12.85;100.00;100545.69;6325258;28;20060;-75
2021/10/05 02:52:53;;;;;;;11.90;6.28;;;;;;;12.81;100.00;100546.81;6324725;28;20411;-75
2021/10/05 02:55:54;;;;;;;10.82;7.07;;;;;;;12.82;100.00;100545.84;6335974;28;20050;-75
2021/10/05 02:58:55;;;;;;;10.18;6.53;;;;;;;12.84;100.00;100546.59;6348078;28;20038;-75
2021/10/05 03:01:56;;;;;;;11.15;6.95;;;;;;;12.80;100.00;100550.34;6348065;28;20048;-75
2021/10/05 03:04:56;;;;;;;10.52;6.47;;;;;;;12.86;100.00;100556.03;6314152;28;20127;-75
2021/10/05 03:07:57;;;;;;;12.13;6.25;;;;;;;12.88;100.00;100551.53;6349168;28;20036;-75
2021/10/05 03:10:58;;;;;;;12.25;6.60;;;;;;;12.76;100.00;100536.59;6348957;28;20043;-75
2021/10/05 03:13:59;;;;;;;10.50;6.80;;;;;;;12.80;100.00;100537.25;6330907;28;20071;-75
2021/10/05 03:17:00;;;;;;;10.80;6.20;;;;;;;12.81;100.00;100544.19;6347536;28;20039;-75
2021/10/05 03:20:01;;;;;;;15.60;6.90;;;;;;;12.80;100.00;100535.47;6347710;28;20039;-75
2021/10/05 03:23:01;;;;;;;14.23;7.70;;;;;;;12.81;100.00;100531.94;6348766;28;20475;-75
2021/10/05 03:26:04;;;;;;;12.90;6.53;;;;;;;12.78;100.00;100534.72;6347366;28;20491;-75
2021/10/05 03:29:10;;;;;;;11.43;6.78;;;;;;;12.79;100.00;100543.44;6347524;28;20043;-75
2021/10/05 03:32:11;;;;;;;12.65;7.22;;;;;;;12.76;100.00;100538.38;6348495;28;20049;-70
2021/10/05 03:35:11;;;;;;;13.57;7.50;;;;;;;12.70;100.00;100531.75;6347218;28;20035;-70
2021/10/05 03:38:12;;;;;;;12.13;7.10;;;;;;;12.66;100.00;100515.41;6347108;28;20040;-71
2021/10/05 03:41:13;;;;;;;12.90;7.00;;;;;;;12.70;100.00;100523.88;6330230;28;20042;-71
2021/10/05 03:44:14;;;;;;;12.43;6.10;;;;;;;12.72;100.00;100523.81;6346305;28;20044;-71
2021/10/05 03:47:14;;;;;;;13.43;6.97;;;;;;;12.67;100.00;100521.47;6329944;28;20096;-70
2021/10/05 03:50:15;;;;;;;9.45;6.88;;;;;;;12.65;100.00;100515.50;6346654;28;20064;-71
2021/10/05 03:53:18;;;;;;;12.98;7.35;;;;;;;12.64;100.00;100516.41;6316328;28;20051;-75
2021/10/05 03:56:18;;;;;;;;;;;;;;;12.65;100.00;100518.13;6337055;28;20097;-75
2021/10/05 03:59:20;;;;;;;10.05;7.22;;;;;;;12.54;100.00;100512.69;6333932;28;19969;-75
2021/10/05 04:02:21;;;;;;;12.70;6.93;;;;;;;12.53;100.00;100516.25;6321449;28;20119;-75
2021/10/05 04:05:21;;;;;;;12.85;7.47;;;;;;;12.59;100.00;100516.72;6326337;28;20032;-75
2021/10/05 04:08:22;;;;;;;14.60;8.27;;;;;;;12.55;100.00;100503.91;6346642;28;20058;-75
2021/10/05 04:11:23;;;;;;;15.55;8.50;;;;;;;12.54;100.00;100499.59;6346403;28;20043;-74
2021/10/05 04:14:24;;;;;;;13.63;7.65;;;;;;;12.52;100.00;100510.19;6346393;28;20046;-75
2021/10/05 04:17:24;;;;;;;12.82;7.68;;;;;;;12.56;100.00;100518.66;6347362;28;20495;-75
2021/10/05 04:20:25;;;;;;;11.20;7.35;;;;;;;12.55;100.00;100509.16;6340689;28;20035;-71
2021/10/05 04:23:26;;;;;;;11.45;6.82;;;;;;;12.55;100.00;100504.75;6336243;28;20540;-71
2021/10/05 04:26:27;;;;;;;9.63;6.95;;;;;;;12.55;100.00;100506.53;6339370;28;20499;-71
2021/10/05 04:29:28;;;;;;;15.05;6.65;;;;;;;12.58;100.00;100501.09;6332626;28;20039;-71
2021/10/05 04:32:28;;;;;;;13.23;6.55;;;;;;;12.56;100.00;100495.09;6312321;28;20151;-71
2021/10/05 04:35:29;;;;;;;10.90;6.82;;;;;;;12.51;100.00;100500.63;6343748;28;20048;-72
2021/10/05 04:38:30;;;;;;;16.40;7.53;;;;;;;12.48;100.00;100498.22;6320890;28;20127;-71
2021/10/05 04:41:30;;;;;;;14.18;6.63;;;;;;;12.50;100.00;100493.75;6303588;28;20138;-72
2021/10/05 04:44:31;;;;;;;13.43;6.68;;;;;;;12.49;100.00;100489.44;6321686;28;20460;-73
2021/10/05 04:47:32;;;;;;;12.73;6.15;;;;;;;12.50;100.00;100489.34;6320406;28;20044;-72
2021/10/05 04:50:34;;;;;;;15.02;6.32;;;;;;;12.56;100.00;100493.34;6324432;28;20056;-72
2021/10/05 04:53:35;;;;;;;11.05;7.20;;;;;;;12.56;100.00;100485.50;6345851;28;20058;-73
2021/10/05 04:56:35;;;;;;;15.73;6.70;;;;;;;12.54;100.00;100476.91;6350380;28;20047;-72
2021/10/05 04:59:36;;;;;;;11.63;6.50;;;;;;;12.58;100.00;100493.25;6342885;28;20059;-72
2021/10/05 05:02:37;;;;;;;14.15;6.60;;;;;;;12.58;100.00;100482.78;6343671;28;20042;-72
2021/10/05 05:05:38;;;;;;;11.35;6.78;;;;;;;12.64;100.00;100485.88;6297229;28;20044;-72
2021/10/05 05:08:38;;;;;;;14.07;6.82;;;;;;;12.64;100.00;100487.63;6309047;28;20047;-73
2021/10/05 05:11:39;;;;;;;19.98;7.32;;;;;;;12.73;100.00;100494.09;6325071;28;20051;-74
2021/10/05 05:14:41;;;;;;;12.07;7.43;;;;;;;12.79;100.00;100497.16;6325063;28;20036;-72
2021/10/05 05:17:41;;;;;;;13.97;7.00;;;;;;;12.84;100.00;100499.47;6324799;28;20040;-72
2021/10/05 05:20:42;;;;;;;12.32;6.63;;;;;;;12.90;100.00;100499.91;6324777;28;20295;-72
2021/10/05 05:23:43;;;;;;;11.85;7.15;;;;;;;13.00;100.00;100497.56;6307938;28;20089;-72
2021/10/05 05:26:43;;;;;;;17.42;7.40;;;;;;;13.07;100.00;100498.00;6324497;28;20484;-75
2021/10/05 05:29:44;;;;;;;12.60;7.20;;;;;;;13.14;100.00;100496.66;6325825;28;20048;-75
2021/10/05 05:32:45;;;;;;;12.13;6.60;;;;;;;13.26;100.00;100500.25;6307661;28;20040;-75
2021/10/05 05:35:47;;;;;;;13.00;7.15;;;;;;;13.35;100.00;100491.84;6325661;28;20613;-75
2021/10/05 05:38:48;;;;;;;11.32;6.47;;;;;;;13.55;100.00;100508.88;6324114;28;20040;-75
2021/10/05 05:41:49;;;;;;;12.82;6.70;;;;;;;13.66;100.00;100505.53;6324363;28;20380;-75
2021/10/05 05:44:52;;;;;;;16.02;6.20;;;;;;;13.81;100.00;100512.38;6324238;28;20044;-75
2021/10/05 05:47:52;;;;;;;14.00;6.43;;;;;;;13.97;100.00;100516.59;6323828;28;20075;-75
2021/10/05 05:50:53;;;;;;;10.07;6.75;;;;;;;14.08;100.00;100521.94;6324111;28;20040;-75
2021/10/05 05:53:54;;;;;;;10.25;6.00;;;;;;;14.21;100.00;100532.47;6307327;28;20142;-75
2021/10/05 05:56:55;;;;;;;9.73;6.07;;;;;;;14.35;100.00;100537.59;6323951;28;20123;-75
2021/10/05 05:59:55;;;;;;;14.15;6.88;;;;;;;14.42;100.00;100536.22;6323677;28;20115;-75
2021/10/05 06:02:56;;;;;;;14.25;6.38;;;;;;;14.54;99.33;100545.03;6323909;28;20040;-75
2021/10/05 06:05:57;;;;;;;10.40;6.03;;;;;;;14.60;99.96;100543.78;6306208;28;20475;-75
2021/10/05 06:08:59;;;;;;;9.88;6.00;;;;;;;14.74;99.21;100550.69;6306786;28;20044;-75
2021/10/05 06:12:04;;;;;;;14.27;5.95;;;;;;;14.91;95.19;100542.47;6323566;28;20048;-75
2021/10/05 06:15:15;;;;;;;10.57;5.93;;;;;;;14.91;94.96;100548.56;6323591;28;20044;-75
2021/10/05 06:18:16;;;;;;;10.17;5.57;;;;;;;14.90;94.77;100549.50;6324448;28;20093;-75
2021/10/05 06:21:17;;;;;;;11.80;5.63;;;;;;;14.96;91.81;100561.34;6326943;28;20170;-75
2021/10/05 06:24:17;;;;;;;9.73;5.50;;;;;;;14.99;93.12;100562.91;6336906;28;20040;-75
2021/10/05 06:27:18;;;;;;;12.60;5.50;;;;;;;15.08;90.78;100568.38;6323295;28;20040;-75
2021/10/05 06:30:20;;;;;;;10.55;5.72;;;;;;;15.13;91.38;100557.50;6335014;28;20054;-75
2021/10/05 06:33:20;;;;;;;11.65;6.85;;;;;;;15.16;92.11;100567.81;6349912;28;20054;-75
2021/10/05 06:36:22;;;;;;;11.32;6.47;;;;;;;15.20;92.68;100563.19;6348638;28;20043;-75
2021/10/05 06:39:23;;;;;;;10.77;6.28;;;;;;;15.29;90.07;100570.41;6331440;28;20039;-75
2021/10/05 06:42:23;;;;;;;8.63;5.78;;;;;;;15.35;91.19;100564.69;6336777;28;20047;-75
2021/10/05 06:45:25;;;;;;;12.70;6.72;;;;;;;15.44;90.69;100556.16;6322974;28;20430;-75
2021/10/05 06:48:26;;;;;;;12.40;6.25;;;;;;;15.43;88.13;100556.25;6326335;28;20127;-75
2021/10/05 06:51:27;;;;;;;10.75;4.65;;;;;;;15.42;87.61;100558.03;6336380;28;20506;-75
2021/10/05 06:54:28;;;;;;;9.45;4.93;;;;;;;15.49;87.97;100550.53;6344552;28;20170;-75
2021/10/05 06:57:29;;;;;;;13.65;5.50;;;;;;;15.56;88.24;100553.53;6339877;28;20036;-75
2021/10/05 07:00:30;;;;;;;15.57;5.88;;;;;;;15.62;88.94;100558.34;6336603;28;20044;-75
2021/10/05 07:03:30;;;;;;;9.40;5.15;;;;;;;15.67;87.90;100557.06;6334958;28;20046;-75
2021/10/05 07:06:31;;;;;;;12.43;5.85;;;;;;;15.72;85.35;100554.13;6330920;28;20115;-75
2021/10/05 07:09:32;;;;;;;7.65;5.22;;;;;;;15.71;84.79;100542.72;6323577;28;20154;-75
2021/10/05 07:12:33;;;;;;;13.40;5.35;;;;;;;15.88;84.95;100549.38;6322270;28;20036;-75
2021/10/05 07:15:34;;;;;;;9.73;5.28;;;;;;;16.04;84.84;100548.22;6323489;28;20046;-75
2021/10/05 07:18:34;;;;;;;10.00;5.20;;;;;;;16.28;81.20;100533.16;6322307;28;20043;-75
2021/10/05 07:21:35;;;;;;;8.85;4.80;;;;;;;16.34;82.74;100544.19;6322180;28;20506;-75
2021/10/05 07:24:36;;;;;;;8.32;5.00;;;;;;;16.36;80.88;100545.75;6305280;28;20044;-75
2021/10/05 07:27:37;;;;;;;7.93;5.07;;;;;;;16.41;80.73;100551.50;6344821;28;20070;-75
2021/10/05 07:30:47;;;;;;;8.53;5.43;;;;;;;16.45;83.47;100546.81;6330464;28;20483;-75
2021/10/05 07:33:47;;;;;;;12.35;5.70;;;;;;;16.42;82.74;100545.28;6326448;28;20040;-75
2021/10/05 07:36:48;;;;;;;10.35;5.80;;;;;;;16.58;82.18;100552.81;6321900;28;20505;-75
2021/10/05 07:39:49;;;;;;;9.35;5.38;;;;;;;16.82;79.33;100546.59;6321429;28;20040;-75
2021/10/05 07:42:52;;;;;;;13.75;4.90;;;;;;;17.27;77.17;100554.41;6307224;28;20123;-75
2021/10/05 07:45:53;;;;;;;12.73;5.55;;;;;;;17.25;77.87;100551.88;6347971;28;20585;-75
2021/10/05 07:48:54;;;;;;;11.27;5.50;;;;;;;17.18;77.48;100556.00;6347609;28;20082;-75
2021/10/05 07:51:55;;;;;;;14.43;5.28;;;;;;;17.23;79.01;100552.97;6307244;28;20036;-75
2021/10/05 07:54:55;;;;;;;10.95;5.38;;;;;;;17.33;79.51;100551.28;6321378;28;20061;-75
2021/10/05 07:57:57;;;;;;;15.13;5.10;;;;;;;17.36;76.56;100550.19;6322386;28;20072;-75
2021/10/05 08:00:58;;;;;;;26.15;8.30;;;;;;;17.42;81.67;100547.91;6321251;28;20051;-75
2021/10/05 08:03:58;;;;;;;13.18;6.10;;;;;;;17.51;79.43;100546.31;6304199;28;20105;-75
2021/10/05 08:06:59;;;;;;;8.80;5.57;;;;;;;17.60;77.67;100545.53;6321106;28;20126;-76
2021/10/05 08:10:00;;;;;;;19.70;6.03;;;;;;;17.69;77.58;100542.13;6321037;28;20126;-76
2021/10/05 08:13:01;;;;;;;11.32;6.15;;;;;;;17.75;77.48;100554.00;6304190;28;20040;-75
2021/10/05 08:16:03;;;;;;;9.68;4.88;;;;;;;17.80;77.14;100550.97;6322708;28;20085;-75
2021/10/05 08:19:05;;;;;;;11.18;5.90;;;;;;;17.94;75.39;100552.50;6347148;28;20054;-72
2021/10/05 08:22:06;;;;;;;12.68;5.32;;;;;;;18.34;72.91;100549.91;6347379;28;20042;-72
2021/10/05 08:25:08;;;;;;;10.47;5.43;;;;;;;18.56;70.25;100546.28;6329262;28;20044;-72
2021/10/05 08:28:09;;;;;;;9.80;4.80;;;;;;;18.83;69.45;100553.63;6347172;28;20051;-73
2021/10/05 08:31:10;;;;;;;8.63;4.67;;;;;;;19.46;65.43;100555.97;6346918;28;20070;-72
2021/10/05 08:34:10;;;;;;;7.80;4.70;;;;;;;20.00;66.19;100552.88;6346232;28;20045;-75
2021/10/05 08:37:11;;;;;;;10.17;4.73;;;;;;;20.35;60.74;100549.56;6345949;28;20122;-75
2021/10/05 08:40:12;;;;;;;8.67;4.80;;;;;;;20.27;58.98;100537.03;6345611;28;20036;-75
2021/10/05 08:43:13;;;;;;;5.97;4.07;;;;;;;19.83;58.46;100542.03;6345854;28;20050;-75
2021/10/05 08:46:14;;;;;;;8.25;4.40;;;;;;;19.56;62.18;100544.53;6345723;28;20483;-75
2021/10/05 08:49:15;;;;;;;6.00;3.63;;;;;;;19.36;59.07;100543.72;6323177;28;20109;-75
2021/10/05 08:52:17;;;;;;;6.60;4.38;;;;;;;19.52;58.18;100539.53;6309758;28;20074;-75
2021/10/05 08:55:18;;;;;;;10.83;4.20;;;;;;;19.95;58.61;100532.09;6332297;28;20472;-75
2021/10/05 08:58:19;;;;;;;7.45;3.90;;;;;;;20.38;57.31;100529.88;6332651;28;20050;-75
2021/10/05 09:01:20;;;;;;;8.00;4.80;;;;;;;20.68;54.78;100534.13;6329166;28;20064;-75
2021/10/05 09:04:21;;;;;;;7.20;4.53;;;;;;;20.88;51.53;100529.56;6320284;28;20127;-75
2021/10/05 09:07:24;;;;;;;13.02;4.45;;;;;;;21.05;51.98;100520.78;6320154;28;20070;-75
2021/10/05 09:10:33;;;;;;;13.65;3.88;;;;;;;21.23;52.66;100517.28;6321363;28;20044;-75
2021/10/05 09:13:35;;;;;;;6.97;3.90;;;;;;;21.28;50.15;100515.84;6321345;28;20044;-75
2021/10/05 09:16:36;;;;;;;9.02;3.70;;;;;;;21.53;48.05;100511.59;6321400;28;20040;-75
2021/10/05 09:19:37;;;;;;;6.68;3.60;;;;;;;21.64;50.57;100518.50;6319818;28;20044;-75
2021/10/05 09:22:38;;;;;;;5.07;3.30;;;;;;;21.89;47.51;100518.69;6321299;28;20547;-75
2021/10/05 09:25:42;;;;;;;8.20;3.80;;;;;;;22.09;46.97;100516.63;6286697;28;20139;-75
2021/10/05 09:28:43;;;;;;;8.93;4.47;;;;;;;22.11;45.31;100509.34;6321108;28;20063;-72
2021/10/05 09:31:48;;;;;;;7.00;4.03;;;;;;;22.17;42.35;100513.19;6286604;28;20040;-72
2021/10/05 09:34:55;;;;;;;8.45;3.72;;;;;;;22.18;42.96;100507.75;6319861;28;20047;-72
2021/10/05 09:38:09;;;;;;;8.30;3.40;;;;;;;22.42;42.97;100504.38;6319934;28;20036;-73
2021/10/05 09:41:10;;;;;;;5.55;3.28;;;;;;;22.45;42.07;100508.56;6319949;28;20048;-73
2021/10/05 09:44:11;;;;;;;9.97;3.90;;;;;;;22.50;42.31;100511.56;6324910;28;20059;-73
2021/10/05 09:47:12;;;;;;;8.90;3.33;;;;;;;22.67;42.37;100507.97;6290925;28;20040;-73
2021/10/05 09:50:28;;;;;;;5.97;3.47;;;;;;;22.73;44.93;100506.47;6325389;28;20056;-73
2021/10/05 09:53:29;;;;;;;7.47;3.78;;;;;;;22.88;43.93;100501.41;6325419;28;20048;-72
2021/10/05 09:56:30;;;;;;;5.50;3.53;;;;;;;23.00;44.54;100491.25;6307429;28;20453;-73
2021/10/05 09:59:31;;;;;;;7.53;3.65;;;;;;;23.16;42.91;100498.47;6307157;28;20492;-72
2021/10/05 10:02:35;;;;;;;8.67;4.17;;;;;;;23.39;41.82;100501.31;6324103;28;20074;-73
2021/10/05 10:05:38;;;;;;;6.82;3.80;;;;;;;23.37;42.44;100501.50;6325122;28;20040;-73
2021/10/05 10:08:44;;;;;;;10.32;5.80;;;;;;;23.48;41.05;100493.16;6325303;28;20445;-72
2021/10/05 10:11:45;;;;;;;9.88;3.70;;;;;;;23.32;42.28;100490.50;6324868;28;20036;-72
2021/10/05 10:14:49;;;;;;;5.18;3.63;;;;;;;23.34;40.94;100493.81;6323874;28;20506;-73
2021/10/05 10:17:50;;;;;;;5.72;3.50;;;;;;;23.52;40.58;100502.47;6323629;28;20395;-73
2021/10/05 10:21:11;;;;;;;6.97;3.63;;;;;;;23.38;38.14;100507.63;6323460;28;20040;-73
2021/10/05 10:24:18;;;;;;;7.13;3.42;;;;;;;23.60;39.44;100493.66;6324694;28;20051;-73
2021/10/05 10:27:21;;;;;;;6.55;3.47;;;;;;;23.65;34.39;100499.28;6323570;28;20036;-72
2021/10/05 10:30:28;;;;;;;7.13;3.45;;;;;;;23.74;36.90;100497.44;6324666;28;20048;-73
2021/10/05 10:33:42;;;;;;;6.68;3.30;;;;;;;23.88;37.73;100498.63;6324518;28;20064;-73
2021/10/05 10:36:42;;;;;;;10.48;3.38;;;;;;;24.13;36.21;100491.41;6324253;28;20044;-73
2021/10/05 10:39:45;;;;;;;6.47;3.50;;;;;;;24.11;35.46;100488.06;6289776;28;20048;-73
2021/10/05 10:42:46;;;;;;;6.00;3.45;;;;;;;24.16;36.45;100482.25;6323186;28;20454;-73
2021/10/05 10:46:01;;;;;;;7.55;3.65;;;;;;;24.20;36.96;100484.41;6306163;28;20071;-73
2021/10/05 10:49:11;;;;;;;5.70;3.58;;;;;;;23.97;33.69;100489.63;6322746;28;20139;-73
2021/10/05 10:52:26;;;;;;;8.60;3.50;;;;;;;24.11;37.38;100480.06;6323771;28;20407;-73
2021/10/05 10:55:33;;;;;;;7.10;3.40;;;;;;;24.16;37.73;100475.06;6322684;28;20042;-73
2021/10/05 10:58:41;;;;;;;6.95;3.50;;;;;;;24.17;35.04;100465.25;6323854;28;20047;-73
2021/10/05 11:01:48;;;;;;;5.93;3.20;;;;;;;24.36;36.73;100462.19;6323560;28;20075;-73
2021/10/05 11:04:52;;;;;;;5.95;3.58;;;;;;;24.50;36.16;100471.28;6323759;28;20437;-72
2021/10/05 11:07:58;;;;;;;8.65;5.20;;;;;;;24.39;36.73;100464.47;6323721;28;20384;-73
2021/10/05 11:11:03;;;;;;;4.97;3.60;;;;;;;24.48;35.38;100468.78;6323526;28;20466;-73
2021/10/05 11:14:06;;;;;;;10.77;3.70;;;;;;;24.50;39.26;100458.81;6305676;28;20044;-73
2021/10/05 11:17:09;;;;;;;14.32;4.50;;;;;;;24.54;36.20;100437.94;6322105;28;20048;-73
2021/10/05 11:20:10;;;;;;;7.70;3.67;;;;;;;24.53;36.52;100431.78;6322124;28;20046;-73
2021/10/05 11:23:11;;;;;;;5.47;3.70;;;;;;;24.69;36.04;100419.34;6323341;28;20137;-73
2021/10/05 11:26:12;;;;;;;9.50;3.60;;;;;;;24.73;38.05;100418.81;6322214;28;20066;-73
2021/10/05 11:29:29;;;;;;;10.32;3.70;;;;;;;24.48;35.45;100420.78;6321961;28;20047;-73
2021/10/05 11:32:31;;;;;;;7.05;3.72;;;;;;;24.25;36.06;100419.88;6321806;28;20040;-72
2021/10/05 11:35:39;;;;;;;8.45;3.67;;;;;;;24.32;37.96;100418.19;6331624;28;20122;-73
2021/10/05 11:38:49;;;;;;;9.00;3.35;;;;;;;24.51;36.16;100406.28;6347005;28;20051;-73
2021/10/05 11:41:53;;;;;;;12.77;3.58;;;;;;;24.64;36.53;100406.53;6326398;28;20109;-73
2021/10/05 11:45:01;;;;;;;7.78;3.35;;;;;;;24.65;37.26;100410.03;6322787;28;20404;-73
2021/10/05 11:48:01;;;;;;;9.38;3.50;;;;;;;24.51;36.97;100399.09;6322465;28;20514;-73
2021/10/05 11:51:02;;;;;;;8.70;3.57;;;;;;;24.66;37.65;100406.34;6321456;28;20044;-72
2021/10/05 11:54:03;;;;;;;7.85;3.92;;;;;;;24.65;35.96;100402.03;6321344;28;20059;-73
2021/10/05 11:57:16;;;;;;;6.13;4.07;;;;;;;24.64;37.06;100397.69;6322609;28;20048;-73
2021/10/05 12:00:17;;;;;;;6.13;3.35;;;;;;;24.58;37.50;100401.06;6322163;28;20050;-72
2021/10/05 12:03:19;;;;;;;6.85;3.33;;;;;;;24.80;36.67;100392.25;6321335;28;20123;-73
2021/10/05 12:06:40;;;;;;;5.15;3.40;;;;;;;24.86;35.51;100383.53;6320605;28;20052;-73
2021/10/05 12:09:41;;;;;;;7.13;3.63;;;;;;;24.86;36.19;100380.03;6321005;28;20047;-73
2021/10/05 12:12:42;;;;;;;6.50;4.05;;;;;;;24.88;37.43;100383.34;6322048;28;20040;-73
2021/10/05 12:15:42;;;;;;;5.73;3.33;;;;;;;24.94;40.45;100380.78;6320860;28;20105;-73
2021/10/05 12:18:43;;;;;;;9.68;3.50;;;;;;;24.75;38.16;100362.63;6320694;28;20056;-72
2021/10/05 12:21:51;;;;;;;5.67;3.30;;;;;;;24.77;38.00;100349.94;6321896;28;20040;-73
2021/10/05 12:25:04;;;;;;;6.43;4.03;;;;;;;24.64;36.93;100349.69;6320812;28;20409;-73
2021/10/05 12:28:06;;;;;;;5.97;3.80;;;;;;;24.59;38.63;100349.41;6321945;28;20040;-72
2021/10/05 12:31:11;;;;;;;6.53;3.90;;;;;;;24.69;38.23;100353.47;6321779;28;20087;-73
2021/10/05 12:34:12;;;;;;;9.52;4.43;;;;;;;24.69;40.79;100352.66;6320885;28;20123;-73
2021/10/05 12:37:13;;;;;;;7.28;3.55;;;;;;;24.77;38.71;100341.91;6322099;28;20040;-73
2021/10/05 12:40:14;;;;;;;7.22;3.92;;;;;;;24.66;38.45;100337.81;6320435;28;20044;-73
2021/10/05 12:43:39;;;;;;;13.43;4.33;;;;;;;24.63;37.94;100318.69;6321824;28;20123;-73
2021/10/05 12:46:40;;;;;;;9.90;3.65;;;;;;;24.46;41.13;100301.94;6331491;28;20279;-73
2021/10/05 12:49:50;;;;;;;5.82;3.72;;;;;;;24.48;39.36;100290.09;6303576;28;20052;-73
2021/10/05 12:52:54;;;;;;;9.02;3.75;;;;;;;24.54;40.12;100296.56;6321388;28;20043;-73
2021/10/05 12:55:55;;;;;;;5.45;3.75;;;;;;;24.51;39.39;100308.44;6321556;28;20064;-73
2021/10/05 12:58:57;;;;;;;5.73;3.90;;;;;;;24.42;41.56;100324.63;6321441;28;20047;-73
2021/10/05 13:01:58;;;;;;;7.00;3.90;;;;;;;24.37;43.01;100319.00;6321409;28;20101;-73
2021/10/05 13:04:59;;;;;;;5.90;3.85;;;;;;;24.28;44.97;100312.91;6323100;28;20118;-74
2021/10/05 13:08:00;;;;;;;8.50;3.63;;;;;;;24.21;46.37;100310.09;6329322;28;20043;-73
2021/10/05 13:11:00;;;;;;;8.03;3.93;;;;;;;24.17;45.53;100295.44;6330036;28;20040;-73
2021/10/05 13:14:02;;;;;;;7.70;4.27;;;;;;;23.99;46.52;100303.75;6320007;28;20064;-74
2021/10/05 13:17:03;;;;;;;6.35;3.92;;;;;;;23.92;47.38;100297.44;6347576;28;20044;-73
2021/10/05 13:20:07;;;;;;;8.77;4.18;;;;;;;23.87;46.23;100297.97;6338453;28;20498;-73
2021/10/05 13:23:08;;;;;;;6.57;3.90;;;;;;;23.82;44.90;100289.66;6338598;28;20415;-73
2021/10/05 13:26:10;;;;;;;8.95;4.30;;;;;;;23.58;44.72;100287.91;6324936;28;20047;-73
2021/10/05 13:29:11;;;;;;;;;;;;;;;23.57;47.40;100296.06;6325613;28;20258;-73
2021/10/05 13:32:12;;;;;;;8.13;3.60;;;;;;;23.69;45.55;100287.53;6333307;28;19919;-73
2021/10/05 13:35:13;;;;;;;8.85;3.75;;;;;;;23.62;43.10;100283.91;6326506;28;20040;-73
2021/10/05 13:38:15;;;;;;;10.20;4.10;;;;;;;23.64;44.25;100289.03;6327029;28;20492;-73
2021/10/05 13:41:16;;;;;;;9.25;4.28;;;;;;;23.67;43.84;100289.53;6331925;28;20040;-74
2021/10/05 13:44:17;;;;;;;7.97;4.30;;;;;;;23.67;43.52;100297.53;6331542;28;20121;-75
2021/10/05 13:47:19;;;;;;;;;;;;;;;23.52;43.91;100286.75;6324986;28;20086;-73
2021/10/05 13:50:20;;;;;;;7.53;3.95;;;;;;;23.38;45.43;100287.47;6307456;28;19969;-73
2021/10/05 13:53:22;;;;;;;10.40;3.80;;;;;;;23.32;45.61;100285.50;6325489;28;20476;-73
2021/10/05 13:56:25;;;;;;;6.75;4.30;;;;;;;23.19;46.28;100290.53;6308775;28;20548;-73
2021/10/05 13:59:26;;;;;;;8.02;3.70;;;;;;;23.12;45.82;100290.38;6349382;28;20036;-73